Impacts TAF Board INFO
FOR SITUATIONAL AWARENESS. NOT TO BE USED FOR FLIGHT PLANNING PURPOSES.
IDs:

KIAD - Washington/Dulles In, VA, US

Issued at 1728 UTC 24 Apr 2018
Updated at 2042 UTC 24 Apr 2018
Potential Impact None Slight Moderate High
Time<<25/09Z 25/10Z 25/11Z 25/12Z 25/13Z 25/14Z 25/15Z 25/16Z 25/17Z 25/18Z 25/19Z 25/20Z 25/21Z>>
Type PRVL PRVL PRVL PRVL PRVL PRVL PRVL PRVL PRVL PRVL PRVL PRVL PRVL
VIS 5 5 5 >6 >6 >6 >6 >6 >6 >6 >6 >6 >6
CIG 8 8 8 10 10 10 10 10 10 10 25 25 25
Cover OVC OVC OVC OVC OVC OVC OVC OVC OVC OVC BKN BKN BKN
FltCat IFR IFR IFR MVFR MVFR MVFR MVFR MVFR MVFR MVFR MVFR MVFR MVFR
WX -RA -RA -RA -- -- -- -- -- -- -- -- -- --
WDir 90 90 90 10 10 10 330 330 330 330 330 330 330
WSpd 11 11 11 6 6 6 6 6 6 6 9 9 9
WGst 18 18 18 -- -- -- -- -- -- -- -- -- --

Raw TAF
KIAD 241728Z 2418/2524 11012G20KT P6SM -RA OVC040
  FM242200 10011G19KT 3SM -RA OVC025
  FM250000 09011G19KT 3SM -RA OVC015
  FM250100 09011G18KT 5SM -RA OVC008
  FM251200 01006KT P6SM OVC010
  FM251500 33006KT P6SM OVC010
  FM251900 33009KT P6SM BKN025


METAR Board
Radar Display
Forecast Discussion

FOR SITUATIONAL AWARENESS. NOT TO BE USED FOR FLIGHT PLANNING PURPOSES.